Time;durP1;ratioP1;P1;durP2;ratioP2;P2;SDS_P1;SDS_P2;PMS_P1;PMS_P2;Temp;Humidity;BMP_temperature;BMP_pressure;BME280_temperature;BME280_humidity;BME280_pressure;Samples;Min_cycle;Max_cycle;Signal;HPM_P1;HPM_P2
2024/03/18 00:00:52;;;;;;;;;23.75;20.00;;;;;17.96;100.00;100978.25;2108694;27;46666;-61
2024/03/18 00:01:52;;;;;;;;;22.50;21.25;;;;;17.97;100.00;100977.31;2107783;27;46206;-61
2024/03/18 00:02:52;;;;;;;;;20.50;19.00;;;;;17.97;100.00;100972.78;2108897;27;46517;-61
2024/03/18 00:03:53;;;;;;;;;20.00;19.67;;;;;17.96;100.00;100975.56;2109006;27;46332;-60
2024/03/18 00:04:56;;;;;;;;;19.75;19.25;;;;;17.96;100.00;100983.63;2109037;27;46508;-60
2024/03/18 00:05:56;;;;;;;;;27.60;27.00;;;;;17.90;100.00;100982.94;2107456;27;46435;-60
2024/03/18 00:06:57;;;;;;;;;29.25;27.50;;;;;17.88;100.00;100976.78;2108269;27;46690;-62
2024/03/18 00:07:57;;;;;;;;;27.25;25.50;;;;;17.92;100.00;100978.41;2109059;27;46792;-59
2024/03/18 00:08:57;;;;;;;;;26.25;23.00;;;;;17.92;100.00;100981.09;2108443;27;46390;-59
2024/03/18 00:09:58;;;;;;;;;25.00;23.00;;;;;17.93;100.00;100974.78;2106992;27;45822;-61
2024/03/18 00:10:58;;;;;;;;;19.50;19.50;;;;;17.94;100.00;100981.00;2090489;28;46682;-60
2024/03/18 00:11:58;;;;;;;;;21.75;21.75;;;;;17.94;100.00;100983.69;2093704;28;46599;-60
2024/03/18 00:12:59;;;;;;;;;21.50;20.75;;;;;17.96;100.00;100984.47;2102588;27;46997;-61
2024/03/18 00:13:59;;;;;;;;;20.25;20.25;;;;;17.95;100.00;100982.75;2102720;27;46677;-58
2024/03/18 00:14:59;;;;;;;;;20.00;18.50;;;;;17.94;100.00;100979.19;2108419;27;46531;-60
2024/03/18 00:16:00;;;;;;;;;21.50;19.50;;;;;17.93;100.00;100976.59;2107859;27;46432;-61
2024/03/18 00:17:00;;;;;;;;;22.25;21.00;;;;;17.92;100.00;100973.03;2108879;27;46751;-61
2024/03/18 00:18:00;;;;;;;;;22.50;22.50;;;;;17.92;100.00;100973.03;2107876;27;45866;-62
2024/03/18 00:19:01;;;;;;;;;21.00;19.75;;;;;17.92;100.00;100964.09;2107987;27;46902;-60
2024/03/18 00:20:07;;;;;;;;;17.75;17.50;;;;;17.91;100.00;100963.25;2107713;27;45997;-62
2024/03/18 00:21:08;;;;;;;;;20.80;19.80;;;;;17.90;100.00;100966.84;2107585;27;46018;-62
2024/03/18 00:22:09;;;;;;;;;21.00;21.00;;;;;17.93;100.00;100965.84;2090355;28;46186;-61
2024/03/18 00:23:09;;;;;;;;;21.50;20.75;;;;;17.94;100.00;100968.44;2081111;28;46210;-60
2024/03/18 00:24:09;;;;;;;;;20.00;19.75;;;;;17.94;100.00;100968.44;2089125;28;46582;-59
2024/03/18 00:25:13;;;;;;;;;22.50;21.50;;;;;17.93;100.00;100965.84;2107536;27;46498;-59
2024/03/18 00:26:14;;;;;;;;;21.80;20.80;;;;;17.92;100.00;100962.28;2108623;27;46925;-62
2024/03/18 00:27:14;;;;;;;;;22.25;21.25;;;;;17.94;100.00;100964.91;2108116;27;46671;-61
2024/03/18 00:28:14;;;;;;;;;23.75;22.00;;;;;17.93;100.00;100958.66;2107547;27;46739;-61
2024/03/18 00:29:15;;;;;;;;;23.00;22.25;;;;;17.94;100.00;100959.53;2109377;27;46556;-62
2024/03/18 00:30:15;;;;;;;;;23.00;20.75;;;;;17.92;100.00;100961.41;2108411;27;46704;-62
2024/03/18 00:31:15;;;;;;;;;21.25;21.25;;;;;17.92;100.00;100962.28;2108619;27;46676;-62
2024/03/18 00:32:18;;;;;;;;;18.50;18.50;;;;;17.92;100.00;100964.97;2108720;27;46734;-61
2024/03/18 00:33:18;;;;;;;;;17.20;17.20;;;;;17.94;100.00;100960.41;2091206;28;47128;-62
2024/03/18 00:34:19;;;;;;;;;22.00;20.50;;;;;17.93;100.00;100968.53;2095674;28;46329;-62
2024/03/18 00:35:19;;;;;;;;;21.25;20.00;;;;;17.92;100.00;100956.06;2109590;27;46714;-61
2024/03/18 00:36:20;;;;;;;;;21.00;20.50;;;;;17.93;100.00;100960.47;2111516;27;46289;-61
2024/03/18 00:37:21;;;;;;;;;26.00;25.00;;;;;17.92;100.00;100959.59;2111596;27;45698;-58
2024/03/18 00:38:21;;;;;;;;;36.00;31.75;;;;;17.93;100.00;100960.47;2106993;27;46232;-60
2024/03/18 00:39:21;;;;;;;;;33.75;30.25;;;;;17.92;100.00;100964.09;2107957;27;46487;-60
2024/03/18 00:40:22;;;;;;;;;27.25;25.25;;;;;17.92;100.00;100959.59;2106339;27;46379;-59
2024/03/18 00:42:41;;;;;;;;;25.40;24.80;;;;;17.88;100.00;100959.81;2107550;27;46442;-62
2024/03/18 00:43:41;;;;;;;;;24.00;23.00;;;;;17.87;100.00;100964.31;2108728;27;46528;-61
2024/03/18 00:44:42;;;;;;;;;24.00;21.50;;;;;17.89;100.00;100965.09;2107071;27;46589;-62
2024/03/18 00:45:42;;;;;;;;;28.00;27.75;;;;;17.90;100.00;100957.91;2105815;27;46339;-62
2024/03/18 00:46:44;;;;;;;;;25.75;24.25;;;;;17.89;100.00;100957.03;2107771;27;46450;-61
2024/03/18 00:47:44;;;;;;;;;27.60;26.40;;;;;17.91;100.00;100956.97;2102340;27;46784;-61
2024/03/18 00:48:44;;;;;;;;;26.25;26.25;;;;;17.91;100.00;100952.50;2100049;27;46484;-62
2024/03/18 00:49:45;;;;;;;;;24.75;22.50;;;;;17.82;100.00;100946.69;2107955;27;46386;-62
2024/03/18 00:50:46;;;;;;;;;26.00;24.25;;;;;17.80;100.00;100951.28;2108485;27;46343;-62
2024/03/18 00:51:46;;;;;;;;;24.25;24.25;;;;;17.80;100.00;100960.19;2108019;27;45221;-62
2024/03/18 00:52:46;;;;;;;;;21.50;19.00;;;;;17.80;100.00;100945.91;2110733;27;45731;-62
2024/03/18 00:53:47;;;;;;;;;23.25;21.75;;;;;17.80;100.00;100956.63;2110934;27;46163;-60
2024/03/18 00:54:48;;;;;;;;;27.25;26.50;;;;;17.80;100.00;100962.88;2108107;27;46462;-60
2024/03/18 00:55:49;;;;;;;;;27.25;27.25;;;;;17.87;100.00;100953.56;2108454;27;46977;-62
2024/03/18 00:56:49;;;;;;;;;23.40;22.60;;;;;17.87;100.00;100953.56;2108251;27;47603;-61
2024/03/18 00:57:50;;;;;;;;;23.50;21.50;;;;;17.90;100.00;100948.03;2108573;27;46486;-61
2024/03/18 00:58:50;;;;;;;;;23.25;22.50;;;;;17.96;100.00;100948.72;2107794;27;47860;-61
2024/03/18 00:59:51;;;;;;;;;21.50;20.50;;;;;17.98;100.00;100954.88;2107895;27;45544;-62
2024/03/18 01:00:51;;;;;;;;;20.20;18.40;;;;;17.98;100.00;100953.06;2107067;27;47223;-62
2024/03/18 01:01:52;;;;;;;;;22.25;20.50;;;;;17.97;100.00;100951.31;2107235;27;45988;-63
2024/03/18 01:02:53;;;;;;;;;18.75;17.25;;;;;17.99;100.00;100959.28;2107753;27;46215;-62
2024/03/18 01:03:54;;;;;;;;;21.60;19.80;;;;;17.99;100.00;100959.28;2107458;27;46625;-61
2024/03/18 01:04:54;;;;;;;;;21.25;20.00;;;;;17.99;100.00;100951.25;2108123;27;45602;-62
2024/03/18 01:05:54;;;;;;;;;18.25;17.25;;;;;18.02;100.00;100953.75;2107848;27;46253;-62
2024/03/18 01:06:57;;;;;;;;;17.00;16.75;;;;;18.01;100.00;100950.22;2107269;27;46290;-62
2024/03/18 01:07:58;;;;;;;;;18.20;18.20;;;;;18.04;100.00;100949.19;2107071;27;46874;-61
2024/03/18 01:08:58;;;;;;;;;19.75;17.00;;;;;18.02;100.00;100943.88;2108031;27;46342;-60
2024/03/18 01:09:58;;;;;;;;;18.00;17.25;;;;;18.02;100.00;100951.06;2107956;27;46468;-60
2024/03/18 01:10:59;;;;;;;;;18.00;18.00;;;;;18.00;100.00;100948.47;2108262;27;46639;-60
2024/03/18 01:11:59;;;;;;;;;14.50;14.00;;;;;18.00;100.00;100948.47;2109011;27;46185;-62
2024/03/18 01:12:59;;;;;;;;;19.50;18.25;;;;;18.02;100.00;100945.72;2107656;27;46862;-60
2024/03/18 01:14:00;;;;;;;;;17.25;17.00;;;;;18.02;100.00;100948.41;2107785;27;47405;-62
2024/03/18 01:15:00;;;;;;;;;18.00;18.00;;;;;18.02;100.00;100956.44;2108287;27;46787;-61
2024/03/18 01:16:00;;;;;;;;;18.75;18.00;;;;;18.02;100.00;100948.41;2109236;27;45659;-61
2024/03/18 01:17:02;;;;;;;;;16.50;15.75;;;;;18.01;100.00;100950.22;2107028;27;46742;-61
2024/03/18 01:18:04;;;;;;;;;17.20;16.00;;;;;18.01;100.00;100941.28;2107623;27;47450;-62
2024/03/18 01:19:05;;;;;;;;;14.00;14.00;;;;;18.02;100.00;100951.94;2108486;27;46440;-61
2024/03/18 01:20:15;;;;;;;;;15.00;15.00;;;;;18.02;100.00;100951.06;2107639;27;46511;-61
2024/03/18 01:21:16;;;;;;;;;13.80;13.80;;;;;18.01;100.00;100952.91;2105038;27;47430;-61
2024/03/18 01:22:16;;;;;;;;;13.25;13.25;;;;;18.01;100.00;100944.84;2099548;27;46383;-60
2024/03/18 01:23:17;;;;;;;;;14.67;14.00;;;;;18.01;100.00;100950.22;2107667;27;46553;-60
2024/03/18 01:24:17;;;;;;;;;12.67;12.67;;;;;18.02;100.00;100946.56;2107427;27;46761;-61
2024/03/18 01:25:17;;;;;;;;;13.33;11.33;;;;;18.02;100.00;100940.34;2107155;27;46214;-60
2024/03/18 01:26:20;;;;;;;;;11.00;11.00;;;;;18.02;100.00;100938.53;2107216;27;46508;-61
2024/03/18 01:27:21;;;;;;;;;10.25;10.25;;;;;18.02;100.00;100938.53;2107387;27;46505;-63
2024/03/18 01:28:21;;;;;;;;;13.33;11.67;;;;;18.04;100.00;100939.34;2107912;27;46173;-61
2024/03/18 01:29:22;;;;;;;;;17.00;13.00;;;;;18.02;100.00;100937.66;2107335;27;46923;-61
2024/03/18 01:30:22;;;;;;;;;7.33;7.00;;;;;18.03;100.00;100936.69;2108223;27;46676;-61
2024/03/18 01:31:22;;;;;;;;;12.00;11.00;;;;;18.02;100.00;100933.16;2107231;27;46288;-61
2024/03/18 01:32:23;;;;;;;;;14.00;12.25;;;;;17.98;100.00;100931.56;2107185;27;46749;-61
2024/03/18 01:33:23;;;;;;;;;10.00;9.00;;;;;17.98;100.00;100928.00;2107675;27;46695;-59
2024/03/18 01:34:24;;;;;;;;;10.33;10.33;;;;;17.98;100.00;100930.69;2108685;27;45078;-63
2024/03/18 01:35:25;;;;;;;;;9.67;9.67;;;;;18.00;100.00;100924.31;2106743;27;46897;-60
2024/03/18 01:36:25;;;;;;;;;11.75;10.75;;;;;18.00;100.00;100912.69;2108582;27;46693;-62
2024/03/18 01:37:25;;;;;;;;;9.33;9.00;;;;;17.99;100.00;100919.88;2108063;27;45860;-60
2024/03/18 01:38:26;;;;;;;;;12.00;12.00;;;;;17.96;100.00;100914.66;2107941;27;46266;-61
2024/03/18 01:39:27;;;;;;;;;11.33;11.00;;;;;17.99;100.00;100914.50;2107689;27;46970;-61
2024/03/18 01:40:27;;;;;;;;;10.00;8.67;;;;;17.99;100.00;100919.00;2107311;27;46697;-61
2024/03/18 01:41:27;;;;;;;;;13.67;11.00;;;;;18.04;100.00;100915.19;2107618;27;46633;-60
2024/03/18 01:42:28;;;;;;;;;8.33;7.33;;;;;18.05;100.00;100919.59;2107331;27;46325;-61
2024/03/18 01:43:29;;;;;;;;;10.50;9.00;;;;;18.05;100.00;100919.59;2106187;27;46742;-62
2024/03/18 01:44:29;;;;;;;;;10.33;9.33;;;;;18.06;100.00;100921.34;2107719;27;46888;-60
2024/03/18 01:45:30;;;;;;;;;12.00;11.00;;;;;18.07;100.00;100917.69;2107872;27;46631;-62
2024/03/18 01:46:30;;;;;;;;;12.00;9.00;;;;;18.07;100.00;100911.47;2101430;27;46590;-61
2024/03/18 01:47:31;;;;;;;;;9.00;9.00;;;;;18.08;100.00;100910.50;2101818;27;46443;-60
2024/03/18 01:48:31;;;;;;;;;10.67;9.33;;;;;18.03;100.00;100912.53;2104167;27;46661;-60
2024/03/18 01:49:32;;;;;;;;;10.00;10.00;;;;;18.02;100.00;100900.91;2107225;27;46424;-59
2024/03/18 01:50:32;;;;;;;;;9.67;9.00;;;;;18.01;100.00;100907.25;2107549;27;46089;-59
2024/03/18 01:51:33;;;;;;;;;13.67;11.00;;;;;18.01;100.00;100906.38;2106499;27;46843;-62
2024/03/18 01:52:33;;;;;;;;;9.67;9.67;;;;;18.01;100.00;100898.31;2106295;27;45477;-59
2024/03/18 01:53:33;;;;;;;;;11.33;10.33;;;;;18.03;100.00;100897.28;2107380;27;46535;-60
2024/03/18 01:54:34;;;;;;;;;10.33;9.67;;;;;18.08;100.00;100897.09;2108645;27;46784;-60
2024/03/18 01:55:34;;;;;;;;;10.00;10.00;;;;;18.06;100.00;100898.97;2107979;27;45728;-60
2024/03/18 01:56:35;;;;;;;;;12.00;12.00;;;;;18.06;100.00;100893.59;2106895;27;46747;-59
2024/03/18 01:57:35;;;;;;;;;8.67;8.33;;;;;18.08;100.00;100891.72;2107491;27;46587;-58
2024/03/18 01:58:38;;;;;;;;;10.00;10.00;;;;;18.10;100.00;100892.50;2107806;27;46420;-59
2024/03/18 01:59:39;;;;;;;;;10.00;8.00;;;;;18.08;100.00;100892.59;2107530;27;47214;-61
2024/03/18 02:00:41;;;;;;;;;7.67;7.00;;;;;18.07;100.00;100880.09;2108054;27;46365;-61
2024/03/18 02:01:41;;;;;;;;;12.25;11.50;;;;;18.09;100.00;100894.31;2107752;27;46218;-61
2024/03/18 02:02:42;;;;;;;;;11.67;11.00;;;;;18.10;100.00;100887.13;2107669;27;46977;-59
2024/03/18 02:03:42;;;;;;;;;7.25;6.75;;;;;18.09;100.00;100888.06;2107362;27;46525;-59
2024/03/18 02:04:43;;;;;;;;;10.67;9.00;;;;;18.10;100.00;100888.00;2107290;27;46222;-61
2024/03/18 02:05:44;;;;;;;;;9.00;9.00;;;;;18.07;100.00;100887.28;2107196;27;46228;-62
2024/03/18 02:06:44;;;;;;;;;8.00;8.00;;;;;18.05;100.00;100887.38;2107139;27;46311;-61
2024/03/18 02:07:45;;;;;;;;;9.00;9.00;;;;;18.04;100.00;100876.66;2094076;28;46014;-60
2024/03/18 02:08:45;;;;;;;;;9.00;9.00;;;;;18.03;100.00;100888.38;2095143;28;46606;-60
2024/03/18 02:09:45;;;;;;;;;8.00;8.00;;;;;18.05;100.00;100886.50;2098206;28;45735;-62
2024/03/18 02:10:45;;;;;;;;;10.00;9.00;;;;;18.03;100.00;100883.00;2098831;28;46170;-60
2024/03/18 02:11:46;;;;;;;;;8.00;8.00;;;;;18.03;100.00;100878.50;2107181;27;46581;-61
2024/03/18 02:12:47;;;;;;;;;10.00;10.00;;;;;18.04;100.00;100879.34;2107289;27;46531;-61
2024/03/18 02:13:47;;;;;;;;;8.67;8.33;;;;;18.04;100.00;100871.31;2107648;27;46484;-61
2024/03/18 02:14:51;;;;;;;;;9.00;9.00;;;;;18.05;100.00;100870.38;2107698;27;46423;-58
2024/03/18 02:15:52;;;;;;;;;8.00;7.75;;;;;18.03;100.00;100878.50;2107729;27;45973;-61
2024/03/18 02:16:52;;;;;;;;;7.00;7.00;;;;;18.01;100.00;100868.78;2107901;27;46216;-60
2024/03/18 02:17:53;;;;;;;;;11.33;9.33;;;;;18.02;100.00;100865.16;2106014;27;46693;-60
2024/03/18 02:18:54;;;;;;;;;9.00;9.00;;;;;17.99;100.00;100865.31;2106657;27;46360;-59
2024/03/18 02:19:54;;;;;;;;;10.67;8.67;;;;;18.00;100.00;100862.53;2107733;27;46650;-60
2024/03/18 02:20:56;;;;;;;;;8.33;8.33;;;;;18.00;100.00;100862.53;2107340;27;46693;-60
2024/03/18 02:21:57;;;;;;;;;8.50;8.50;;;;;17.99;100.00;100860.81;2107043;27;46591;-61
2024/03/18 02:22:58;;;;;;;;;8.00;7.00;;;;;17.99;100.00;100868.84;2107624;27;46638;-62
2024/03/18 02:23:58;;;;;;;;;11.00;9.00;;;;;18.00;100.00;100864.34;2107786;27;46644;-62
2024/03/18 02:24:59;;;;;;;;;10.67;9.00;;;;;17.99;100.00;100868.84;2106922;27;46526;-60
2024/03/18 02:25:59;;;;;;;;;11.00;10.00;;;;;17.96;100.00;100873.53;2107326;27;46599;-60
2024/03/18 02:27:07;;;;;;;;;7.67;7.33;;;;;17.97;100.00;100876.13;2104594;27;46649;-61
2024/03/18 02:28:08;;;;;;;;;11.75;9.00;;;;;17.97;100.00;100867.19;2107708;27;46992;-60
2024/03/18 02:29:08;;;;;;;;;8.50;8.50;;;;;17.97;100.00;100872.56;2106734;27;46270;-61
2024/03/18 02:30:09;;;;;;;;;8.00;8.00;;;;;17.97;100.00;100875.25;2108445;27;46519;-61
2024/03/18 02:31:09;;;;;;;;;8.67;8.67;;;;;17.99;100.00;100874.22;2108630;27;45972;-61
2024/03/18 02:32:10;;;;;;;;;8.67;8.67;;;;;17.98;100.00;100868.94;2108292;27;45557;-61
2024/03/18 02:33:10;;;;;;;;;11.00;9.75;;;;;17.99;100.00;100868.84;2107641;27;46831;-61
2024/03/18 02:34:11;;;;;;;;;10.00;8.33;;;;;17.98;100.00;100869.81;2106367;27;46555;-61
2024/03/18 02:35:16;;;;;;;;;9.67;9.67;;;;;17.98;100.00;100869.81;2107291;27;46372;-61
2024/03/18 02:36:17;;;;;;;;;8.00;7.75;;;;;17.96;100.00;100868.16;2100961;27;47089;-60
2024/03/18 02:37:18;;;;;;;;;8.00;8.00;;;;;17.94;100.00;100865.56;2098813;27;47253;-59
2024/03/18 02:38:18;;;;;;;;;9.67;7.67;;;;;17.91;100.00;100858.53;2107001;27;46430;-61
2024/03/18 02:39:22;;;;;;;;;10.00;9.00;;;;;17.93;100.00;100864.69;2107383;27;45546;-61
2024/03/18 02:40:22;;;;;;;;;9.25;8.75;;;;;17.92;100.00;100867.44;2107169;27;46853;-61
2024/03/18 02:41:23;;;;;;;;;13.00;10.00;;;;;17.92;100.00;100867.44;2107867;27;46585;-60
2024/03/18 02:42:23;;;;;;;;;8.00;7.33;;;;;17.93;100.00;100867.38;2107079;27;46675;-60
2024/03/18 02:43:23;;;;;;;;;7.33;7.33;;;;;17.93;100.00;100861.13;2107234;27;46687;-61
2024/03/18 02:44:24;;;;;;;;;8.67;8.67;;;;;17.93;100.00;100859.31;2107488;27;46885;-61
2024/03/18 02:45:24;;;;;;;;;6.33;6.33;;;;;17.93;100.00;100858.44;2104968;27;46822;-61
2024/03/18 02:46:24;;;;;;;;;10.33;9.67;;;;;17.95;100.00;100867.28;2106337;27;46539;-61
2024/03/18 02:47:25;;;;;;;;;9.00;9.00;;;;;17.96;100.00;100858.28;2107852;27;46440;-60
2024/03/18 02:48:28;;;;;;;;;6.67;6.67;;;;;18.01;100.00;100869.66;2106593;27;46206;-59
2024/03/18 02:49:28;;;;;;;;;7.75;7.75;;;;;18.01;100.00;100869.66;2105701;27;46920;-61
2024/03/18 02:50:28;;;;;;;;;10.00;8.00;;;;;18.01;100.00;100868.78;2107222;27;46570;-59
2024/03/18 02:51:29;;;;;;;;;9.33;9.33;;;;;18.01;100.00;100866.09;2106297;27;46088;-59
2024/03/18 02:52:29;;;;;;;;;8.00;8.00;;;;;18.01;100.00;100874.16;2106077;27;46337;-58
2024/03/18 02:53:29;;;;;;;;;10.00;8.33;;;;;18.01;100.00;100883.06;2106699;27;46145;-60
2024/03/18 02:54:30;;;;;;;;;10.00;8.00;;;;;18.01;100.00;100876.84;2105810;27;46183;-61
2024/03/18 02:55:30;;;;;;;;;9.00;9.00;;;;;18.02;100.00;100886.63;2106974;27;46826;-62
2024/03/18 02:56:31;;;;;;;;;7.67;7.67;;;;;18.00;100.00;100885.84;2108408;27;45862;-62
2024/03/18 02:57:31;;;;;;;;;9.33;8.33;;;;;17.99;100.00;100889.47;2110903;27;46456;-62
2024/03/18 02:58:32;;;;;;;;;9.00;8.00;;;;;17.99;100.00;100892.16;2107282;27;46360;-60
2024/03/18 02:59:32;;;;;;;;;7.33;7.00;;;;;17.98;100.00;100885.06;2107902;27;46234;-61
2024/03/18 03:00:32;;;;;;;;;8.00;8.00;;;;;17.99;100.00;100886.78;2106625;27;46730;-60
2024/03/18 03:01:34;;;;;;;;;7.33;7.33;;;;;17.98;100.00;100888.59;2105338;27;46742;-60
2024/03/18 03:02:34;;;;;;;;;11.25;9.75;;;;;17.97;100.00;100894.06;2106651;27;46852;-60
2024/03/18 03:03:36;;;;;;;;;10.00;10.00;;;;;17.97;100.00;100883.31;2107559;27;45723;-60
2024/03/18 03:04:37;;;;;;;;;11.50;9.75;;;;;17.97;100.00;100892.25;2106092;27;46456;-62
2024/03/18 03:05:38;;;;;;;;;10.33;9.33;;;;;17.97;100.00;100888.69;2107030;27;46603;-60
2024/03/18 03:06:38;;;;;;;;;11.00;10.67;;;;;17.97;100.00;100883.31;2106421;27;46442;-61
2024/03/18 03:07:39;;;;;;;;;10.67;10.00;;;;;17.97;100.00;100876.13;2101649;27;46248;-61
2024/03/18 03:08:40;;;;;;;;;9.00;9.00;;;;;17.98;100.00;100879.69;2103524;27;46199;-62
2024/03/18 03:09:40;;;;;;;;;10.33;10.33;;;;;17.94;100.00;100874.47;2107453;27;46595;-59
2024/03/18 03:10:40;;;;;;;;;14.00;9.67;;;;;17.98;100.00;100880.56;2107382;27;46659;-61
2024/03/18 03:11:42;;;;;;;;;8.33;8.33;;;;;17.98;100.00;100880.56;2106747;27;46558;-61
2024/03/18 03:12:43;;;;;;;;;10.50;10.00;;;;;18.00;100.00;100872.41;2110367;27;45856;-58
2024/03/18 03:13:43;;;;;;;;;7.67;7.67;;;;;18.00;100.00;100875.09;2108330;27;46892;-60
2024/03/18 03:14:44;;;;;;;;;10.00;9.67;;;;;18.00;100.00;100869.72;2106443;27;46618;-60
2024/03/18 03:15:45;;;;;;;;;8.00;6.33;;;;;18.00;100.00;100875.09;2108238;27;46453;-60
2024/03/18 03:16:45;;;;;;;;;11.00;11.00;;;;;17.99;100.00;100868.84;2108752;27;46212;-60
2024/03/18 03:17:45;;;;;;;;;7.00;7.00;;;;;17.99;100.00;100866.19;2108444;27;46650;-61
2024/03/18 03:18:46;;;;;;;;;10.67;8.67;;;;;17.99;100.00;100871.53;2107054;27;46857;-60
2024/03/18 03:19:46;;;;;;;;;8.00;7.00;;;;;17.99;100.00;100868.00;2108308;27;46476;-61
2024/03/18 03:20:47;;;;;;;;;8.33;8.33;;;;;18.01;100.00;100866.97;2108664;27;45634;-59
2024/03/18 03:21:47;;;;;;;;;10.00;10.00;;;;;18.03;100.00;100869.56;2107837;27;46823;-61
2024/03/18 03:22:49;;;;;;;;;6.00;6.00;;;;;18.01;100.00;100866.97;2108611;27;47516;-62
2024/03/18 03:23:50;;;;;;;;;9.50;9.00;;;;;18.02;100.00;100867.84;2108377;27;46594;-62
2024/03/18 03:24:50;;;;;;;;;11.25;9.50;;;;;18.02;100.00;100871.38;2108610;27;46488;-61
2024/03/18 03:25:51;;;;;;;;;8.00;8.00;;;;;17.89;100.00;100871.13;2108971;27;46905;-61
2024/03/18 03:26:52;;;;;;;;;7.00;7.00;;;;;17.87;100.00;100873.03;2108306;27;45168;-61
2024/03/18 03:27:58;;;;;;;;;9.67;7.67;;;;;17.86;100.00;100867.72;2109172;27;45732;-62
2024/03/18 03:28:59;;;;;;;;;10.75;9.75;;;;;17.85;100.00;100866.88;2109233;27;46440;-61
2024/03/18 03:29:59;;;;;;;;;7.33;7.33;;;;;17.83;100.00;100866.06;2108848;27;46570;-62
2024/03/18 03:31:08;;;;;;;;;8.00;8.00;;;;;17.84;100.00;100867.81;2108135;27;46177;-59
2024/03/18 03:32:14;;;;;;;;;8.50;8.50;;;;;17.83;100.00;100871.44;2108041;27;46630;-61
2024/03/18 03:33:15;;;;;;;;;8.00;8.00;;;;;17.81;100.00;100861.72;2108487;27;47070;-62
2024/03/18 03:34:15;;;;;;;;;9.00;7.00;;;;;17.81;100.00;100865.28;2108515;27;46307;-61
2024/03/18 03:35:16;;;;;;;;;9.00;9.00;;;;;17.81;100.00;100864.41;2109500;27;46564;-62
2024/03/18 03:36:16;;;;;;;;;9.50;9.25;;;;;17.81;100.00;100867.09;2106607;27;46137;-61
2024/03/18 03:37:18;;;;;;;;;8.67;8.00;;;;;17.81;100.00;100865.28;2109230;27;45574;-61
2024/03/18 03:38:19;;;;;;;;;8.25;8.25;;;;;17.81;100.00;100869.78;2106381;27;46997;-60
2024/03/18 03:39:19;;;;;;;;;7.00;7.00;;;;;17.79;100.00;100883.28;2108239;27;46574;-60
2024/03/18 03:40:20;;;;;;;;;7.33;7.33;;;;;17.80;100.00;100886.84;2109461;27;46417;-60
2024/03/18 03:41:20;;;;;;;;;8.67;8.67;;;;;17.79;100.00;100896.72;2109421;27;46194;-60
2024/03/18 03:42:20;;;;;;;;;9.67;7.33;;;;;17.78;100.00;100897.63;2108619;27;46113;-60
2024/03/18 03:43:22;;;;;;;;;9.00;8.33;;;;;17.79;100.00;100898.53;2105995;27;46796;-59
2024/03/18 03:44:22;;;;;;;;;9.75;8.00;;;;;17.77;100.00;100905.75;2108678;27;46941;-61
2024/03/18 03:45:26;;;;;;;;;7.67;7.67;;;;;17.77;100.00;100901.25;2109121;27;46294;-61
2024/03/18 03:46:27;;;;;;;;;7.25;7.25;;;;;17.77;100.00;100903.94;2108750;27;46824;-61
2024/03/18 03:47:27;;;;;;;;;12.00;12.00;;;;;17.76;100.00;100907.56;2094673;28;46241;-60
2024/03/18 03:48:29;;;;;;;;;8.67;8.00;;;;;17.82;100.00;100904.59;2094432;28;46491;-60
2024/03/18 03:49:29;;;;;;;;;7.50;7.50;;;;;17.77;100.00;100908.44;2107502;27;46765;-60
2024/03/18 03:50:29;;;;;;;;;8.00;8.00;;;;;17.77;100.00;100909.31;2107349;27;46803;-58
2024/03/18 03:51:30;;;;;;;;;9.00;8.00;;;;;17.75;100.00;100910.34;2108641;27;46308;-61
2024/03/18 03:52:30;;;;;;;;;8.00;8.00;;;;;17.75;100.00;100913.03;2108938;27;45703;-60
2024/03/18 03:53:30;;;;;;;;;6.67;6.67;;;;;17.74;100.00;100917.50;2107620;27;46249;-60
2024/03/18 03:54:31;;;;;;;;;7.00;7.00;;;;;17.74;100.00;100912.16;2108169;27;46629;-61
2024/03/18 03:55:31;;;;;;;;;9.00;8.00;;;;;17.73;100.00;100915.78;2092439;28;46618;-61
2024/03/18 03:56:31;;;;;;;;;7.00;7.00;;;;;17.75;100.00;100923.75;2091390;28;46801;-59
2024/03/18 03:57:32;;;;;;;;;8.33;7.67;;;;;17.74;100.00;100925.56;2108426;27;46555;-59
2024/03/18 03:58:33;;;;;;;;;7.00;7.00;;;;;17.74;100.00;100922.00;2107376;27;46706;-61
2024/03/18 03:59:33;;;;;;;;;8.00;8.00;;;;;17.73;100.00;100923.84;2108987;27;48006;-61
2024/03/18 04:00:34;;;;;;;;;10.00;8.00;;;;;17.74;100.00;100924.69;2108352;27;46350;-61
2024/03/18 04:01:34;;;;;;;;;9.00;8.33;;;;;17.72;100.00;100923.91;2108724;27;46325;-60
2024/03/18 04:02:34;;;;;;;;;6.00;6.00;;;;;17.71;100.00;100931.09;2100028;27;46174;-60
2024/03/18 04:03:35;;;;;;;;;7.67;7.33;;;;;17.72;100.00;100924.78;2099527;28;46357;-60
2024/03/18 04:04:35;;;;;;;;;6.00;6.00;;;;;17.72;100.00;100931.97;2108125;27;46804;-60
2024/03/18 04:05:36;;;;;;;;;7.00;7.00;;;;;17.77;100.00;100930.78;2109306;27;45250;-60
2024/03/18 04:06:36;;;;;;;;;9.33;8.00;;;;;17.71;100.00;100931.09;2108422;27;46868;-61
2024/03/18 04:07:36;;;;;;;;;10.33;8.67;;;;;17.70;100.00;100933.84;2108929;27;46381;-61
2024/03/18 04:08:37;;;;;;;;;9.33;9.00;;;;;17.70;100.00;100940.09;2108068;27;46860;-61
2024/03/18 04:09:37;;;;;;;;;8.00;8.00;;;;;17.70;100.00;100937.41;2098282;28;46111;-61
2024/03/18 04:10:38;;;;;;;;;7.33;7.33;;;;;17.70;100.00;100933.84;2099725;28;45620;-61
2024/03/18 04:11:39;;;;;;;;;10.75;8.75;;;;;17.71;100.00;100936.47;2108158;27;46516;-61
2024/03/18 04:12:39;;;;;;;;;10.00;8.67;;;;;17.70;100.00;100936.53;2108579;27;46293;-61
2024/03/18 04:13:39;;;;;;;;;9.00;9.00;;;;;17.72;100.00;100942.69;2105948;27;46742;-60
2024/03/18 04:14:40;;;;;;;;;10.00;10.00;;;;;17.70;100.00;100942.78;2108093;27;46421;-60
2024/03/18 04:15:41;;;;;;;;;7.33;7.00;;;;;17.71;100.00;100933.78;2108403;27;46154;-61
2024/03/18 04:16:41;;;;;;;;;9.67;9.00;;;;;17.70;100.00;100940.09;2109102;27;45437;-61
2024/03/18 04:17:41;;;;;;;;;9.00;7.00;;;;;17.72;100.00;100940.88;2108562;27;46654;-61
2024/03/18 04:18:43;;;;;;;;;8.00;8.00;;;;;17.73;100.00;100944.44;2108380;27;47049;-61
2024/03/18 04:19:44;;;;;;;;;10.00;8.75;;;;;17.72;100.00;100948.06;2107870;27;47042;-62
2024/03/18 04:20:44;;;;;;;;;9.00;9.00;;;;;17.71;100.00;100941.84;2108323;27;46303;-61
2024/03/18 04:21:44;;;;;;;;;8.00;8.00;;;;;17.71;100.00;100938.28;2107237;27;46261;-61
2024/03/18 04:22:47;;;;;;;;;7.67;7.67;;;;;17.72;100.00;100940.88;2107754;27;46583;-60
2024/03/18 04:23:47;;;;;;;;;9.50;9.50;;;;;17.70;100.00;100945.47;2107701;27;46898;-62
2024/03/18 04:24:47;;;;;;;;;8.33;8.33;;;;;17.71;100.00;100941.84;2104263;27;46582;-61
2024/03/18 04:25:47;;;;;;;;;8.33;8.33;;;;;17.81;100.00;100944.97;2103686;27;46774;-62
2024/03/18 04:26:49;;;;;;;;;11.00;11.00;;;;;17.84;100.00;100944.78;2108044;27;46108;-62
2024/03/18 04:27:49;;;;;;;;;9.25;9.25;;;;;17.85;100.00;100941.16;2107794;27;46276;-63
2024/03/18 04:28:51;;;;;;;;;10.00;9.67;;;;;17.85;100.00;100935.78;2109084;27;46472;-61
2024/03/18 04:29:51;;;;;;;;;10.75;9.75;;;;;17.87;100.00;100950.00;2107200;27;46033;-62
2024/03/18 04:30:52;;;;;;;;;10.33;10.33;;;;;17.88;100.00;100946.38;2108382;27;46878;-61
2024/03/18 04:31:52;;;;;;;;;10.67;9.33;;;;;17.88;100.00;100947.25;2107830;27;46199;-62
2024/03/18 04:32:52;;;;;;;;;8.67;7.33;;;;;17.89;100.00;100940.94;2106882;27;46230;-62
2024/03/18 04:33:53;;;;;;;;;10.00;10.00;;;;;17.90;100.00;100939.13;2106884;27;46576;-62
2024/03/18 04:34:53;;;;;;;;;10.33;10.33;;;;;17.90;100.00;100942.66;2112842;27;46453;-60
2024/03/18 04:35:53;;;;;;;;;10.00;10.00;;;;;17.90;100.00;100945.34;2108238;27;46926;-62
2024/03/18 04:36:54;;;;;;;;;9.00;9.00;;;;;17.86;100.00;100950.97;2107702;27;46281;-62
2024/03/18 04:37:55;;;;;;;;;12.00;11.33;;;;;17.85;100.00;100951.91;2106396;27;46739;-62